sensor_id;sensor_type;location;lat;lon;timestamp;P1;P2;P0
57451;PMS7003;66031;51.224;-0.164;2023-04-03T00:01:53;1;1;
57451;PMS7003;66031;51.224;-0.164;2023-04-03T00:04:18;1;0;
57451;PMS7003;66031;51.224;-0.164;2023-04-03T00:06:44;1;1;
57451;PMS7003;66031;51.224;-0.164;2023-04-03T00:09:09;2;2;
57451;PMS7003;66031;51.224;-0.164;2023-04-03T00:11:34;2;1;
57451;PMS7003;66031;51.224;-0.164;2023-04-03T00:14:00;1;1;
57451;PMS7003;66031;51.224;-0.164;2023-04-03T00:16:25;1;1;
57451;PMS7003;66031;51.224;-0.164;2023-04-03T00:18:50;0;0;
57451;PMS7003;66031;51.224;-0.164;2023-04-03T00:21:16;0;0;
57451;PMS7003;66031;51.224;-0.164;2023-04-03T00:23:41;1;1;
57451;PMS7003;66031;51.224;-0.164;2023-04-03T00:26:06;1;1;
57451;PMS7003;66031;51.224;-0.164;2023-04-03T00:28:32;1;1;
57451;PMS7003;66031;51.224;-0.164;2023-04-03T00:30:58;0;0;
57451;PMS7003;66031;51.224;-0.164;2023-04-03T00:33:22;0;0;
57451;PMS7003;66031;51.224;-0.164;2023-04-03T00:35:48;2;1;
57451;PMS7003;66031;51.224;-0.164;2023-04-03T00:38:13;3;1;
57451;PMS7003;66031;51.224;-0.164;2023-04-03T00:40:39;1;1;
57451;PMS7003;66031;51.224;-0.164;2023-04-03T00:43:05;1;1;
57451;PMS7003;66031;51.224;-0.164;2023-04-03T00:45:31;1;0;
57451;PMS7003;66031;51.224;-0.164;2023-04-03T00:47:54;1;1;
57451;PMS7003;66031;51.224;-0.164;2023-04-03T00:50:20;2;1;
57451;PMS7003;66031;51.224;-0.164;2023-04-03T00:52:45;1;1;
57451;PMS7003;66031;51.224;-0.164;2023-04-03T00:55:10;1;1;
57451;PMS7003;66031;51.224;-0.164;2023-04-03T00:57:36;1;1;
57451;PMS7003;66031;51.224;-0.164;2023-04-03T01:00:03;1;1;
57451;PMS7003;66031;51.224;-0.164;2023-04-03T01:02:27;1;1;
57451;PMS7003;66031;51.224;-0.164;2023-04-03T01:04:52;0;0;
57451;PMS7003;66031;51.224;-0.164;2023-04-03T01:07:18;0;0;
57451;PMS7003;66031;51.224;-0.164;2023-04-03T01:09:43;1;1;
57451;PMS7003;66031;51.224;-0.164;2023-04-03T01:12:13;1;1;
57451;PMS7003;66031;51.224;-0.164;2023-04-03T01:14:33;0;0;
57451;PMS7003;66031;51.224;-0.164;2023-04-03T01:16:58;1;1;
57451;PMS7003;66031;51.224;-0.164;2023-04-03T01:19:24;1;1;
57451;PMS7003;66031;51.224;-0.164;2023-04-03T01:21:54;0;0;
57451;PMS7003;66031;51.224;-0.164;2023-04-03T01:26:40;1;1;
57451;PMS7003;66031;51.224;-0.164;2023-04-03T01:29:05;0;0;
57451;PMS7003;66031;51.224;-0.164;2023-04-03T01:31:31;1;1;
57451;PMS7003;66031;51.224;-0.164;2023-04-03T01:33:56;1;1;
57451;PMS7003;66031;51.224;-0.164;2023-04-03T01:36:22;0;0;
57451;PMS7003;66031;51.224;-0.164;2023-04-03T01:38:47;0;0;
57451;PMS7003;66031;51.224;-0.164;2023-04-03T01:41:12;0;0;
57451;PMS7003;66031;51.224;-0.164;2023-04-03T01:43:37;1;1;
57451;PMS7003;66031;51.224;-0.164;2023-04-03T01:46:03;2;2;
57451;PMS7003;66031;51.224;-0.164;2023-04-03T01:48:28;0;0;
57451;PMS7003;66031;51.224;-0.164;2023-04-03T01:50:53;1;1;
57451;PMS7003;66031;51.224;-0.164;2023-04-03T01:53:19;1;1;
57451;PMS7003;66031;51.224;-0.164;2023-04-03T01:55:44;1;1;
57451;PMS7003;66031;51.224;-0.164;2023-04-03T01:58:09;0;0;
57451;PMS7003;66031;51.224;-0.164;2023-04-03T02:00:35;2;1;
57451;PMS7003;66031;51.224;-0.164;2023-04-03T02:03:00;1;1;
57451;PMS7003;66031;51.224;-0.164;2023-04-03T02:05:26;0;0;
57451;PMS7003;66031;51.224;-0.164;2023-04-03T02:07:51;0;0;
57451;PMS7003;66031;51.224;-0.164;2023-04-03T02:10:16;1;0;
57451;PMS7003;66031;51.224;-0.164;2023-04-03T02:12:42;0;0;
57451;PMS7003;66031;51.224;-0.164;2023-04-03T02:15:07;1;1;
57451;PMS7003;66031;51.224;-0.164;2023-04-03T02:17:32;0;0;
57451;PMS7003;66031;51.224;-0.164;2023-04-03T02:19:58;0;0;
57451;PMS7003;66031;51.224;-0.164;2023-04-03T02:22:23;0;0;
57451;PMS7003;66031;51.224;-0.164;2023-04-03T02:24:48;0;0;
57451;PMS7003;66031;51.224;-0.164;2023-04-03T02:27:14;0;0;
57451;PMS7003;66031;51.224;-0.164;2023-04-03T02:29:39;0;0;
57451;PMS7003;66031;51.224;-0.164;2023-04-03T02:32:05;0;0;
57451;PMS7003;66031;51.224;-0.164;2023-04-03T02:34:31;1;1;
57451;PMS7003;66031;51.224;-0.164;2023-04-03T02:36:55;1;1;
57451;PMS7003;66031;51.224;-0.164;2023-04-03T02:39:21;0;0;
57451;PMS7003;66031;51.224;-0.164;2023-04-03T02:41:46;0;0;
57451;PMS7003;66031;51.224;-0.164;2023-04-03T02:44:12;0;0;
57451;PMS7003;66031;51.224;-0.164;2023-04-03T02:46:37;3;1;
57451;PMS7003;66031;51.224;-0.164;2023-04-03T02:49:02;0;0;
57451;PMS7003;66031;51.224;-0.164;2023-04-03T02:51:27;1;0;
57451;PMS7003;66031;51.224;-0.164;2023-04-03T02:53:53;1;0;
57451;PMS7003;66031;51.224;-0.164;2023-04-03T02:56:18;2;1;
57451;PMS7003;66031;51.224;-0.164;2023-04-03T02:58:44;0;0;
57451;PMS7003;66031;51.224;-0.164;2023-04-03T03:01:09;1;1;
57451;PMS7003;66031;51.224;-0.164;2023-04-03T03:03:34;1;1;
57451;PMS7003;66031;51.224;-0.164;2023-04-03T03:06:02;1;1;
57451;PMS7003;66031;51.224;-0.164;2023-04-03T03:08:25;0;0;
57451;PMS7003;66031;51.224;-0.164;2023-04-03T03:10:51;1;0;
57451;PMS7003;66031;51.224;-0.164;2023-04-03T03:13:16;1;1;
57451;PMS7003;66031;51.224;-0.164;2023-04-03T03:15:41;1;1;
57451;PMS7003;66031;51.224;-0.164;2023-04-03T03:18:06;0;0;
57451;PMS7003;66031;51.224;-0.164;2023-04-03T03:20:32;0;0;
57451;PMS7003;66031;51.224;-0.164;2023-04-03T03:22:58;0;0;
57451;PMS7003;66031;51.224;-0.164;2023-04-03T03:25:23;0;0;
57451;PMS7003;66031;51.224;-0.164;2023-04-03T03:27:48;1;1;
57451;PMS7003;66031;51.224;-0.164;2023-04-03T03:30:13;0;0;
57451;PMS7003;66031;51.224;-0.164;2023-04-03T03:32:39;1;0;
57451;PMS7003;66031;51.224;-0.164;2023-04-03T03:35:04;1;0;
57451;PMS7003;66031;51.224;-0.164;2023-04-03T03:37:29;1;1;
57451;PMS7003;66031;51.224;-0.164;2023-04-03T03:39:55;1;0;
57451;PMS7003;66031;51.224;-0.164;2023-04-03T03:42:20;0;0;
57451;PMS7003;66031;51.224;-0.164;2023-04-03T03:44:46;1;1;
57451;PMS7003;66031;51.224;-0.164;2023-04-03T03:47:11;0;0;
57451;PMS7003;66031;51.224;-0.164;2023-04-03T03:49:36;1;1;
57451;PMS7003;66031;51.224;-0.164;2023-04-03T03:52:02;0;0;
57451;PMS7003;66031;51.224;-0.164;2023-04-03T03:54:27;1;1;
57451;PMS7003;66031;51.224;-0.164;2023-04-03T03:56:52;0;0;
57451;PMS7003;66031;51.224;-0.164;2023-04-03T03:59:18;0;0;
57451;PMS7003;66031;51.224;-0.164;2023-04-03T04:01:43;0;0;
57451;PMS7003;66031;51.224;-0.164;2023-04-03T04:04:09;1;1;
57451;PMS7003;66031;51.224;-0.164;2023-04-03T04:06:34;1;1;
57451;PMS7003;66031;51.224;-0.164;2023-04-03T04:08:59;0;0;
57451;PMS7003;66031;51.224;-0.164;2023-04-03T04:11:25;0;0;
57451;PMS7003;66031;51.224;-0.164;2023-04-03T04:13:50;0;0;
57451;PMS7003;66031;51.224;-0.164;2023-04-03T04:16:15;0;0;
57451;PMS7003;66031;51.224;-0.164;2023-04-03T04:18:41;2;1;
57451;PMS7003;66031;51.224;-0.164;2023-04-03T04:21:06;1;1;
57451;PMS7003;66031;51.224;-0.164;2023-04-03T04:23:32;0;0;
57451;PMS7003;66031;51.224;-0.164;2023-04-03T04:25:57;0;0;
57451;PMS7003;66031;51.224;-0.164;2023-04-03T04:28:23;0;0;
57451;PMS7003;66031;51.224;-0.164;2023-04-03T04:30:48;0;0;
57451;PMS7003;66031;51.224;-0.164;2023-04-03T04:33:13;2;2;
57451;PMS7003;66031;51.224;-0.164;2023-04-03T04:35:38;1;0;
57451;PMS7003;66031;51.224;-0.164;2023-04-03T04:38:04;0;0;
57451;PMS7003;66031;51.224;-0.164;2023-04-03T04:40:29;0;0;
57451;PMS7003;66031;51.224;-0.164;2023-04-03T04:42:55;0;0;
57451;PMS7003;66031;51.224;-0.164;2023-04-03T04:45:20;1;0;
57451;PMS7003;66031;51.224;-0.164;2023-04-03T04:47:46;1;1;
57451;PMS7003;66031;51.224;-0.164;2023-04-03T04:50:12;0;0;
57451;PMS7003;66031;51.224;-0.164;2023-04-03T04:52:36;1;1;
57451;PMS7003;66031;51.224;-0.164;2023-04-03T04:55:02;0;0;
57451;PMS7003;66031;51.224;-0.164;2023-04-03T04:57:27;1;0;
57451;PMS7003;66031;51.224;-0.164;2023-04-03T04:59:52;1;1;
57451;PMS7003;66031;51.224;-0.164;2023-04-03T05:02:18;0;0;
57451;PMS7003;66031;51.224;-0.164;2023-04-03T05:04:43;0;0;
57451;PMS7003;66031;51.224;-0.164;2023-04-03T05:07:08;0;0;
57451;PMS7003;66031;51.224;-0.164;2023-04-03T05:09:34;0;0;
57451;PMS7003;66031;51.224;-0.164;2023-04-03T05:11:59;0;0;
57451;PMS7003;66031;51.224;-0.164;2023-04-03T05:14:25;0;0;
57451;PMS7003;66031;51.224;-0.164;2023-04-03T05:16:50;1;1;
57451;PMS7003;66031;51.224;-0.164;2023-04-03T05:19:15;1;1;
57451;PMS7003;66031;51.224;-0.164;2023-04-03T05:21:41;1;0;
57451;PMS7003;66031;51.224;-0.164;2023-04-03T05:24:06;2;1;
57451;PMS7003;66031;51.224;-0.164;2023-04-03T05:26:31;0;0;
57451;PMS7003;66031;51.224;-0.164;2023-04-03T05:28:57;1;1;
57451;PMS7003;66031;51.224;-0.164;2023-04-03T05:31:22;0;0;
57451;PMS7003;66031;51.224;-0.164;2023-04-03T05:33:48;0;0;
57451;PMS7003;66031;51.224;-0.164;2023-04-03T05:36:13;1;1;
57451;PMS7003;66031;51.224;-0.164;2023-04-03T05:38:39;0;0;
57451;PMS7003;66031;51.224;-0.164;2023-04-03T05:41:04;1;1;
57451;PMS7003;66031;51.224;-0.164;2023-04-03T05:43:29;0;0;
57451;PMS7003;66031;51.224;-0.164;2023-04-03T05:45:55;2;1;
57451;PMS7003;66031;51.224;-0.164;2023-04-03T05:48:20;3;2;
57451;PMS7003;66031;51.224;-0.164;2023-04-03T05:50:45;1;1;
57451;PMS7003;66031;51.224;-0.164;2023-04-03T05:53:12;1;1;
57451;PMS7003;66031;51.224;-0.164;2023-04-03T05:55:36;0;0;
57451;PMS7003;66031;51.224;-0.164;2023-04-03T05:58:02;0;0;
57451;PMS7003;66031;51.224;-0.164;2023-04-03T06:00:27;1;1;
57451;PMS7003;66031;51.224;-0.164;2023-04-03T06:02:52;0;0;
57451;PMS7003;66031;51.224;-0.164;2023-04-03T06:05:18;1;1;
57451;PMS7003;66031;51.224;-0.164;2023-04-03T06:07:43;1;1;
57451;PMS7003;66031;51.224;-0.164;2023-04-03T06:10:10;0;0;
57451;PMS7003;66031;51.224;-0.164;2023-04-03T06:12:34;2;1;
57451;PMS7003;66031;51.224;-0.164;2023-04-03T06:14:59;1;1;
57451;PMS7003;66031;51.224;-0.164;2023-04-03T06:17:24;1;1;
57451;PMS7003;66031;51.224;-0.164;2023-04-03T06:19:50;2;1;
57451;PMS7003;66031;51.224;-0.164;2023-04-03T06:22:15;2;1;
57451;PMS7003;66031;51.224;-0.164;2023-04-03T06:24:40;0;0;
57451;PMS7003;66031;51.224;-0.164;2023-04-03T06:27:06;1;1;
57451;PMS7003;66031;51.224;-0.164;2023-04-03T06:29:31;0;0;
57451;PMS7003;66031;51.224;-0.164;2023-04-03T06:31:56;0;0;
57451;PMS7003;66031;51.224;-0.164;2023-04-03T06:34:22;2;2;
57451;PMS7003;66031;51.224;-0.164;2023-04-03T06:36:47;1;0;
57451;PMS7003;66031;51.224;-0.164;2023-04-03T06:39:13;2;2;
57451;PMS7003;66031;51.224;-0.164;2023-04-03T06:41:38;1;1;
57451;PMS7003;66031;51.224;-0.164;2023-04-03T06:44:03;1;0;
57451;PMS7003;66031;51.224;-0.164;2023-04-03T06:46:29;1;0;
57451;PMS7003;66031;51.224;-0.164;2023-04-03T06:48:54;1;1;
57451;PMS7003;66031;51.224;-0.164;2023-04-03T06:51:20;1;1;
57451;PMS7003;66031;51.224;-0.164;2023-04-03T06:53:45;1;1;
57451;PMS7003;66031;51.224;-0.164;2023-04-03T06:56:10;1;1;
57451;PMS7003;66031;51.224;-0.164;2023-04-03T06:58:35;2;1;
57451;PMS7003;66031;51.224;-0.164;2023-04-03T07:01:01;0;0;
57451;PMS7003;66031;51.224;-0.164;2023-04-03T07:03:26;0;0;
57451;PMS7003;66031;51.224;-0.164;2023-04-03T07:05:51;1;1;
57451;PMS7003;66031;51.224;-0.164;2023-04-03T07:08:18;1;1;
57451;PMS7003;66031;51.224;-0.164;2023-04-03T07:10:42;1;1;
57451;PMS7003;66031;51.224;-0.164;2023-04-03T07:13:07;2;1;
57451;PMS7003;66031;51.224;-0.164;2023-04-03T07:15:33;3;2;
57451;PMS7003;66031;51.224;-0.164;2023-04-03T07:17:58;1;0;
57451;PMS7003;66031;51.224;-0.164;2023-04-03T07:20:23;2;2;
57451;PMS7003;66031;51.224;-0.164;2023-04-03T07:22:49;1;0;
57451;PMS7003;66031;51.224;-0.164;2023-04-03T07:25:14;1;1;
57451;PMS7003;66031;51.224;-0.164;2023-04-03T07:27:40;1;1;
57451;PMS7003;66031;51.224;-0.164;2023-04-03T07:30:05;0;0;
57451;PMS7003;66031;51.224;-0.164;2023-04-03T07:32:30;1;1;
57451;PMS7003;66031;51.224;-0.164;2023-04-03T07:34:56;1;1;
57451;PMS7003;66031;51.224;-0.164;2023-04-03T07:37:21;1;1;
57451;PMS7003;66031;51.224;-0.164;2023-04-03T07:39:46;1;1;
57451;PMS7003;66031;51.224;-0.164;2023-04-03T07:42:12;1;1;
57451;PMS7003;66031;51.224;-0.164;2023-04-03T07:44:37;1;0;
57451;PMS7003;66031;51.224;-0.164;2023-04-03T07:47:02;1;1;
57451;PMS7003;66031;51.224;-0.164;2023-04-03T07:49:27;1;1;
57451;PMS7003;66031;51.224;-0.164;2023-04-03T07:51:53;2;1;
57451;PMS7003;66031;51.224;-0.164;2023-04-03T07:54:18;0;0;
57451;PMS7003;66031;51.224;-0.164;2023-04-03T07:56:44;2;1;
57451;PMS7003;66031;51.224;-0.164;2023-04-03T07:59:09;2;2;
57451;PMS7003;66031;51.224;-0.164;2023-04-03T08:01:34;1;1;
57451;PMS7003;66031;51.224;-0.164;2023-04-03T08:04:00;0;0;
57451;PMS7003;66031;51.224;-0.164;2023-04-03T08:06:25;1;1;
57451;PMS7003;66031;51.224;-0.164;2023-04-03T08:08:50;0;0;
57451;PMS7003;66031;51.224;-0.164;2023-04-03T08:11:16;1;1;
57451;PMS7003;66031;51.224;-0.164;2023-04-03T08:13:41;1;1;
57451;PMS7003;66031;51.224;-0.164;2023-04-03T08:16:08;1;1;
57451;PMS7003;66031;51.224;-0.164;2023-04-03T08:18:32;2;2;
57451;PMS7003;66031;51.224;-0.164;2023-04-03T08:20:57;2;2;
57451;PMS7003;66031;51.224;-0.164;2023-04-03T08:23:22;1;1;
57451;PMS7003;66031;51.224;-0.164;2023-04-03T08:25:48;2;1;
57451;PMS7003;66031;51.224;-0.164;2023-04-03T08:28:13;2;1;
57451;PMS7003;66031;51.224;-0.164;2023-04-03T08:30:39;1;1;
57451;PMS7003;66031;51.224;-0.164;2023-04-03T08:33:04;0;0;
57451;PMS7003;66031;51.224;-0.164;2023-04-03T08:35:29;0;0;
57451;PMS7003;66031;51.224;-0.164;2023-04-03T08:37:54;3;2;
57451;PMS7003;66031;51.224;-0.164;2023-04-03T08:40:20;1;1;
57451;PMS7003;66031;51.224;-0.164;2023-04-03T08:42:48;1;1;
57451;PMS7003;66031;51.224;-0.164;2023-04-03T08:45:12;1;1;
57451;PMS7003;66031;51.224;-0.164;2023-04-03T08:47:37;0;0;
57451;PMS7003;66031;51.224;-0.164;2023-04-03T08:50:02;0;0;
57451;PMS7003;66031;51.224;-0.164;2023-04-03T08:52:28;2;1;
57451;PMS7003;66031;51.224;-0.164;2023-04-03T08:54:53;2;1;
57451;PMS7003;66031;51.224;-0.164;2023-04-03T08:57:26;1;1;
57451;PMS7003;66031;51.224;-0.164;2023-04-03T08:59:43;1;1;
57451;PMS7003;66031;51.224;-0.164;2023-04-03T09:04:33;0;0;
57451;PMS7003;66031;51.224;-0.164;2023-04-03T09:07:00;2;1;
57451;PMS7003;66031;51.224;-0.164;2023-04-03T09:09:27;3;2;
57451;PMS7003;66031;51.224;-0.164;2023-04-03T09:11:51;1;1;
57451;PMS7003;66031;51.224;-0.164;2023-04-03T09:14:15;2;1;
57451;PMS7003;66031;51.224;-0.164;2023-04-03T09:16:43;1;1;
57451;PMS7003;66031;51.224;-0.164;2023-04-03T09:19:07;1;1;
57451;PMS7003;66031;51.224;-0.164;2023-04-03T09:21:31;3;1;
57451;PMS7003;66031;51.224;-0.164;2023-04-03T09:23:58;1;1;
57451;PMS7003;66031;51.224;-0.164;2023-04-03T09:26:23;3;2;
57451;PMS7003;66031;51.224;-0.164;2023-04-03T09:28:47;1;1;
57451;PMS7003;66031;51.224;-0.164;2023-04-03T09:31:16;2;2;
57451;PMS7003;66031;51.224;-0.164;2023-04-03T09:33:38;1;1;
57451;PMS7003;66031;51.224;-0.164;2023-04-03T09:36:03;2;2;
57451;PMS7003;66031;51.224;-0.164;2023-04-03T09:38:28;2;2;
57451;PMS7003;66031;51.224;-0.164;2023-04-03T09:43:21;2;2;
57451;PMS7003;66031;51.224;-0.164;2023-04-03T09:45:45;1;1;
57451;PMS7003;66031;51.224;-0.164;2023-04-03T09:48:14;2;2;
57451;PMS7003;66031;51.224;-0.164;2023-04-03T09:50:35;2;1;
57451;PMS7003;66031;51.224;-0.164;2023-04-03T09:53:04;1;1;
57451;PMS7003;66031;51.224;-0.164;2023-04-03T09:55:26;2;2;
57451;PMS7003;66031;51.224;-0.164;2023-04-03T09:57:51;1;1;
57451;PMS7003;66031;51.224;-0.164;2023-04-03T10:00:20;1;1;
57451;PMS7003;66031;51.224;-0.164;2023-04-03T10:02:42;2;2;
57451;PMS7003;66031;51.224;-0.164;2023-04-03T10:07:33;0;0;
57451;PMS7003;66031;51.224;-0.164;2023-04-03T10:09:58;2;2;
57451;PMS7003;66031;51.224;-0.164;2023-04-03T10:12:23;1;1;
57451;PMS7003;66031;51.224;-0.164;2023-04-03T10:14:54;0;0;
57451;PMS7003;66031;51.224;-0.164;2023-04-03T10:17:16;2;2;
57451;PMS7003;66031;51.224;-0.164;2023-04-03T10:19:40;2;2;
57451;PMS7003;66031;51.224;-0.164;2023-04-03T10:22:08;2;2;
57451;PMS7003;66031;51.224;-0.164;2023-04-03T10:24:33;3;3;
57451;PMS7003;66031;51.224;-0.164;2023-04-03T10:26:57;3;3;
57451;PMS7003;66031;51.224;-0.164;2023-04-03T10:29:25;3;3;
57451;PMS7003;66031;51.224;-0.164;2023-04-03T10:31:48;3;2;
57451;PMS7003;66031;51.224;-0.164;2023-04-03T10:34:14;2;2;
57451;PMS7003;66031;51.224;-0.164;2023-04-03T10:36:38;0;0;
57451;PMS7003;66031;51.224;-0.164;2023-04-03T10:39:04;1;1;
57451;PMS7003;66031;51.224;-0.164;2023-04-03T10:41:30;2;2;
57451;PMS7003;66031;51.224;-0.164;2023-04-03T10:43:56;2;2;
57451;PMS7003;66031;51.224;-0.164;2023-04-03T10:46:20;3;2;
57451;PMS7003;66031;51.224;-0.164;2023-04-03T10:48:48;2;2;
57451;PMS7003;66031;51.224;-0.164;2023-04-03T10:51:12;1;1;
57451;PMS7003;66031;51.224;-0.164;2023-04-03T10:53:36;2;2;
57451;PMS7003;66031;51.224;-0.164;2023-04-03T10:56:02;1;1;
57451;PMS7003;66031;51.224;-0.164;2023-04-03T10:58:27;3;2;
57451;PMS7003;66031;51.224;-0.164;2023-04-03T11:00:51;2;2;
57451;PMS7003;66031;51.224;-0.164;2023-04-03T11:03:17;2;2;
57451;PMS7003;66031;51.224;-0.164;2023-04-03T11:05:42;3;3;
57451;PMS7003;66031;51.224;-0.164;2023-04-03T11:08:10;1;1;
57451;PMS7003;66031;51.224;-0.164;2023-04-03T11:10:36;2;2;
57451;PMS7003;66031;51.224;-0.164;2023-04-03T11:12:58;2;2;
57451;PMS7003;66031;51.224;-0.164;2023-04-03T11:15:23;1;1;
57451;PMS7003;66031;51.224;-0.164;2023-04-03T11:17:49;2;2;
57451;PMS7003;66031;51.224;-0.164;2023-04-03T11:20:14;2;2;
57451;PMS7003;66031;51.224;-0.164;2023-04-03T11:22:41;2;2;
57451;PMS7003;66031;51.224;-0.164;2023-04-03T11:25:06;2;2;
57451;PMS7003;66031;51.224;-0.164;2023-04-03T11:27:32;2;2;
57451;PMS7003;66031;51.224;-0.164;2023-04-03T11:29:55;1;1;
57451;PMS7003;66031;51.224;-0.164;2023-04-03T11:34:46;2;2;
57451;PMS7003;66031;51.224;-0.164;2023-04-03T11:37:13;4;3;
57451;PMS7003;66031;51.224;-0.164;2023-04-03T11:39:37;3;3;
57451;PMS7003;66031;51.224;-0.164;2023-04-03T11:44:29;3;3;
57451;PMS7003;66031;51.224;-0.164;2023-04-03T11:46:53;2;2;
57451;PMS7003;66031;51.224;-0.164;2023-04-03T11:51:43;2;2;
57451;PMS7003;66031;51.224;-0.164;2023-04-03T11:56:34;2;2;
57451;PMS7003;66031;51.224;-0.164;2023-04-03T12:08:43;2;2;
57451;PMS7003;66031;51.224;-0.164;2023-04-03T12:11:15;2;2;
57451;PMS7003;66031;51.224;-0.164;2023-04-03T12:13:32;2;2;
57451;PMS7003;66031;51.224;-0.164;2023-04-03T12:15:57;2;2;
57451;PMS7003;66031;51.224;-0.164;2023-04-03T12:18:36;6;6;
57451;PMS7003;66031;51.224;-0.164;2023-04-03T12:20:53;7;7;
57451;PMS7003;66031;51.224;-0.164;2023-04-03T12:25:45;8;8;
57451;PMS7003;66031;51.224;-0.164;2023-04-03T12:28:05;5;5;
57451;PMS7003;66031;51.224;-0.164;2023-04-03T12:30:29;3;3;
57451;PMS7003;66031;51.224;-0.164;2023-04-03T12:32:57;3;3;
57451;PMS7003;66031;51.224;-0.164;2023-04-03T12:35:21;4;4;
57451;PMS7003;66031;51.224;-0.164;2023-04-03T12:37:54;3;3;
57451;PMS7003;66031;51.224;-0.164;2023-04-03T12:40:15;3;3;
57451;PMS7003;66031;51.224;-0.164;2023-04-03T12:42:55;3;3;
57451;PMS7003;66031;51.224;-0.164;2023-04-03T12:45:02;4;4;
57451;PMS7003;66031;51.224;-0.164;2023-04-03T12:47:29;4;3;
57451;PMS7003;66031;51.224;-0.164;2023-04-03T12:49:53;3;3;
57451;PMS7003;66031;51.224;-0.164;2023-04-03T12:52:19;4;4;
57451;PMS7003;66031;51.224;-0.164;2023-04-03T12:54:43;2;2;
57451;PMS7003;66031;51.224;-0.164;2023-04-03T12:57:09;4;3;
57451;PMS7003;66031;51.224;-0.164;2023-04-03T12:59:34;3;3;
57451;PMS7003;66031;51.224;-0.164;2023-04-03T13:02:00;3;3;
57451;PMS7003;66031;51.224;-0.164;2023-04-03T13:04:25;3;3;
57451;PMS7003;66031;51.224;-0.164;2023-04-03T13:06:50;3;3;
57451;PMS7003;66031;51.224;-0.164;2023-04-03T13:09:19;3;3;
57451;PMS7003;66031;51.224;-0.164;2023-04-03T13:11:41;2;2;
57451;PMS7003;66031;51.224;-0.164;2023-04-03T13:16:32;3;3;
57451;PMS7003;66031;51.224;-0.164;2023-04-03T13:18:57;1;1;
57451;PMS7003;66031;51.224;-0.164;2023-04-03T13:21:23;3;3;
57451;PMS7003;66031;51.224;-0.164;2023-04-03T13:23:48;2;2;
57451;PMS7003;66031;51.224;-0.164;2023-04-03T13:26:15;3;3;
57451;PMS7003;66031;51.224;-0.164;2023-04-03T13:28:39;3;3;
57451;PMS7003;66031;51.224;-0.164;2023-04-03T13:31:06;1;1;
57451;PMS7003;66031;51.224;-0.164;2023-04-03T13:33:30;3;3;
57451;PMS7003;66031;51.224;-0.164;2023-04-03T13:35:55;3;3;
57451;PMS7003;66031;51.224;-0.164;2023-04-03T13:38:22;4;4;
57451;PMS7003;66031;51.224;-0.164;2023-04-03T13:40:47;3;3;
57451;PMS7003;66031;51.224;-0.164;2023-04-03T13:45:36;2;2;
57451;PMS7003;66031;51.224;-0.164;2023-04-03T13:48:08;2;2;
57451;PMS7003;66031;51.224;-0.164;2023-04-03T13:50:27;3;1;
57451;PMS7003;66031;51.224;-0.164;2023-04-03T13:52:53;4;3;
57451;PMS7003;66031;51.224;-0.164;2023-04-03T13:55:20;0;0;
57451;PMS7003;66031;51.224;-0.164;2023-04-03T14:02:33;3;3;
57451;PMS7003;66031;51.224;-0.164;2023-04-03T14:05:00;1;1;
57451;PMS7003;66031;51.224;-0.164;2023-04-03T14:07:24;1;1;
57451;PMS7003;66031;51.224;-0.164;2023-04-03T14:09:50;2;2;
57451;PMS7003;66031;51.224;-0.164;2023-04-03T14:12:16;3;2;
57451;PMS7003;66031;51.224;-0.164;2023-04-03T14:14:40;3;1;
57451;PMS7003;66031;51.224;-0.164;2023-04-03T14:17:10;3;3;
57451;PMS7003;66031;51.224;-0.164;2023-04-03T14:19:32;1;1;
57451;PMS7003;66031;51.224;-0.164;2023-04-03T14:21:57;3;3;
57451;PMS7003;66031;51.224;-0.164;2023-04-03T14:24:22;4;4;
57451;PMS7003;66031;51.224;-0.164;2023-04-03T14:26:47;1;1;
57451;PMS7003;66031;51.224;-0.164;2023-04-03T14:29:13;2;2;
57451;PMS7003;66031;51.224;-0.164;2023-04-03T14:31:38;2;2;
57451;PMS7003;66031;51.224;-0.164;2023-04-03T14:34:03;2;2;
57451;PMS7003;66031;51.224;-0.164;2023-04-03T14:36:28;1;1;
57451;PMS7003;66031;51.224;-0.164;2023-04-03T14:38:54;2;2;
57451;PMS7003;66031;51.224;-0.164;2023-04-03T14:41:20;2;2;
57451;PMS7003;66031;51.224;-0.164;2023-04-03T14:43:45;2;2;
57451;PMS7003;66031;51.224;-0.164;2023-04-03T14:46:12;1;1;
57451;PMS7003;66031;51.224;-0.164;2023-04-03T14:48:35;2;2;
57451;PMS7003;66031;51.224;-0.164;2023-04-03T14:51:00;2;2;
57451;PMS7003;66031;51.224;-0.164;2023-04-03T14:53:26;3;3;
57451;PMS7003;66031;51.224;-0.164;2023-04-03T14:55:52;2;2;
57451;PMS7003;66031;51.224;-0.164;2023-04-03T14:58:18;1;1;
57451;PMS7003;66031;51.224;-0.164;2023-04-03T15:00:42;3;2;
57451;PMS7003;66031;51.224;-0.164;2023-04-03T15:03:09;2;2;
57451;PMS7003;66031;51.224;-0.164;2023-04-03T15:05:33;3;3;
57451;PMS7003;66031;51.224;-0.164;2023-04-03T15:07:58;4;4;
57451;PMS7003;66031;51.224;-0.164;2023-04-03T15:10:24;2;1;
57451;PMS7003;66031;51.224;-0.164;2023-04-03T15:12:49;2;2;
57451;PMS7003;66031;51.224;-0.164;2023-04-03T15:15:14;2;2;
57451;PMS7003;66031;51.224;-0.164;2023-04-03T15:17:40;2;2;
57451;PMS7003;66031;51.224;-0.164;2023-04-03T15:20:06;2;2;
57451;PMS7003;66031;51.224;-0.164;2023-04-03T15:22:30;3;3;
57451;PMS7003;66031;51.224;-0.164;2023-04-03T15:24:55;3;3;
57451;PMS7003;66031;51.224;-0.164;2023-04-03T15:27:21;2;2;
57451;PMS7003;66031;51.224;-0.164;2023-04-03T15:29:46;3;3;
57451;PMS7003;66031;51.224;-0.164;2023-04-03T15:32:11;3;3;
57451;PMS7003;66031;51.224;-0.164;2023-04-03T15:34:37;3;2;
57451;PMS7003;66031;51.224;-0.164;2023-04-03T15:37:02;4;3;
57451;PMS7003;66031;51.224;-0.164;2023-04-03T15:39:27;3;3;
57451;PMS7003;66031;51.224;-0.164;2023-04-03T15:41:53;1;1;
57451;PMS7003;66031;51.224;-0.164;2023-04-03T15:44:18;3;3;
57451;PMS7003;66031;51.224;-0.164;2023-04-03T15:46:44;3;3;
57451;PMS7003;66031;51.224;-0.164;2023-04-03T15:49:09;2;2;
57451;PMS7003;66031;51.224;-0.164;2023-04-03T15:51:35;3;3;
57451;PMS7003;66031;51.224;-0.164;2023-04-03T15:53:59;2;1;
57451;PMS7003;66031;51.224;-0.164;2023-04-03T15:56:25;3;3;
57451;PMS7003;66031;51.224;-0.164;2023-04-03T15:58:50;3;2;
57451;PMS7003;66031;51.224;-0.164;2023-04-03T16:01:16;2;2;
57451;PMS7003;66031;51.224;-0.164;2023-04-03T16:03:41;3;3;
57451;PMS7003;66031;51.224;-0.164;2023-04-03T16:06:06;2;2;
57451;PMS7003;66031;51.224;-0.164;2023-04-03T16:08:32;3;3;
57451;PMS7003;66031;51.224;-0.164;2023-04-03T16:10:57;3;3;
57451;PMS7003;66031;51.224;-0.164;2023-04-03T16:13:22;3;3;
57451;PMS7003;66031;51.224;-0.164;2023-04-03T16:15:48;2;2;
57451;PMS7003;66031;51.224;-0.164;2023-04-03T16:18:13;3;3;
57451;PMS7003;66031;51.224;-0.164;2023-04-03T16:20:38;2;2;
57451;PMS7003;66031;51.224;-0.164;2023-04-03T16:23:04;2;2;
57451;PMS7003;66031;51.224;-0.164;2023-04-03T16:25:29;3;2;
57451;PMS7003;66031;51.224;-0.164;2023-04-03T16:27:54;2;2;
57451;PMS7003;66031;51.224;-0.164;2023-04-03T16:30:20;2;2;
57451;PMS7003;66031;51.224;-0.164;2023-04-03T16:32:45;1;1;
57451;PMS7003;66031;51.224;-0.164;2023-04-03T16:35:11;2;2;
57451;PMS7003;66031;51.224;-0.164;2023-04-03T16:37:36;2;2;
57451;PMS7003;66031;51.224;-0.164;2023-04-03T16:40:01;3;2;
57451;PMS7003;66031;51.224;-0.164;2023-04-03T16:42:26;4;4;
57451;PMS7003;66031;51.224;-0.164;2023-04-03T16:44:52;2;2;
57451;PMS7003;66031;51.224;-0.164;2023-04-03T16:47:17;3;3;
57451;PMS7003;66031;51.224;-0.164;2023-04-03T16:49:42;2;2;
57451;PMS7003;66031;51.224;-0.164;2023-04-03T16:52:08;4;3;
57451;PMS7003;66031;51.224;-0.164;2023-04-03T16:54:33;3;3;
57451;PMS7003;66031;51.224;-0.164;2023-04-03T16:56:58;1;1;
57451;PMS7003;66031;51.224;-0.164;2023-04-03T16:59:24;2;2;
57451;PMS7003;66031;51.224;-0.164;2023-04-03T17:01:49;1;1;